Time;durP1;ratioP1;P1;durP2;ratioP2;P2;SDS_P1;SDS_P2;PMS_P1;PMS_P2;Temp;Humidity;BMP_temperature;BMP_pressure;BME280_temperature;BME280_humidity;BME280_pressure;Samples;Min_cycle;Max_cycle;Signal;HPM_P1;HPM_P2
2023/08/23 00:00:14;;;;;;;0.00;0.00;;;;;;;16.56;74.73;100878.00;5032521;28;20475;-79
2023/08/23 00:02:39;;;;;;;0.00;0.00;;;;;;;16.48;74.64;100873.13;5015800;28;20056;-76
2023/08/23 00:05:06;;;;;;;0.00;0.00;;;;;;;16.46;74.48;100867.09;5032294;28;20490;-79
2023/08/23 00:07:31;;;;;;;0.00;0.00;;;;;;;16.42;74.26;100871.56;5041886;28;20060;-78
2023/08/23 00:09:57;;;;;;;0.00;0.00;;;;;;;16.49;74.63;100877.53;5012760;28;20037;-76
2023/08/23 00:12:22;;;;;;;0.00;0.00;;;;;;;16.43;74.71;100873.19;5029322;28;20030;-79
2023/08/23 00:15:08;;;;;;;0.00;0.00;;;;;;;16.35;75.00;100860.03;5002200;28;20036;-77
2023/08/23 00:17:34;;;;;;;0.00;0.00;;;;;;;16.29;75.46;100845.47;5021755;28;20467;-80
2023/08/23 00:19:59;;;;;;;0.00;0.00;;;;;;;16.30;75.16;100849.06;5047019;28;20039;-77
2023/08/23 00:22:25;;;;;;;0.00;0.00;;;;;;;16.18;75.23;100825.47;4999823;28;20132;-76
2023/08/23 00:24:50;;;;;;;0.00;0.00;;;;;;;16.34;75.57;100858.38;5033759;28;20040;-78
2023/08/23 00:27:16;;;;;;;0.00;0.00;;;;;;;16.17;75.24;100826.59;5045237;28;20032;-80
2023/08/23 00:29:41;;;;;;;0.00;0.00;;;;;;;16.29;75.21;100833.63;5024873;28;20025;-79
2023/08/23 00:32:10;;;;;;;0.00;0.00;;;;;;;16.23;75.43;100830.91;5024566;28;20503;-79
2023/08/23 00:34:35;;;;;;;0.00;0.00;;;;;;;16.22;75.84;100840.34;5035046;28;21571;-78
2023/08/23 00:37:01;;;;;;;0.00;0.00;;;;;;;16.09;75.69;100823.66;5029673;28;20075;-76
2023/08/23 00:39:28;;;;;;;0.00;0.00;;;;;;;16.13;76.05;100828.28;5049574;28;20044;-75
2023/08/23 00:41:57;;;;;;;0.00;0.00;;;;;;;16.15;75.93;100826.06;5005795;28;20106;-75
2023/08/23 00:44:22;;;;;;;0.00;0.00;;;;;;;16.21;76.41;100833.16;4995312;28;20124;-76
2023/08/23 00:46:48;;;;;;;0.00;0.00;;;;;;;16.21;76.38;100830.41;5007168;28;20142;-77
2023/08/23 00:49:16;;;;;;;0.00;0.00;;;;;;;16.04;76.28;100802.47;5018255;28;20021;-76
2023/08/23 00:51:44;;;;;;;0.00;0.00;;;;;;;16.22;76.54;100828.44;5025808;28;20452;-79
2023/08/23 00:54:11;;;;;;;0.00;0.00;;;;;;;16.06;76.95;100814.00;5002597;28;20029;-78
2023/08/23 00:56:37;;;;;;;0.00;0.00;;;;;;;16.20;77.09;100826.00;4992373;28;20124;-78
2023/08/23 00:59:06;;;;;;;0.00;0.00;;;;;;;16.07;76.90;100820.38;4996827;28;20025;-77
2023/08/23 01:01:31;;;;;;;0.00;0.00;;;;;;;16.06;77.19;100816.78;5011111;28;20029;-78
2023/08/23 01:03:57;;;;;;;0.00;0.00;;;;;;;16.10;77.41;100826.09;5022424;28;20832;-78
2023/08/23 01:06:28;;;;;;;0.00;0.00;;;;;;;16.20;77.00;100828.75;5019976;28;20077;-77
2023/08/23 01:08:57;;;;;;;0.00;0.00;;;;;;;16.22;77.24;100826.53;5050902;28;20380;-80
2023/08/23 01:11:28;;;;;;;0.00;0.00;;;;;;;16.20;77.53;100826.00;5043191;28;20034;-77
2023/08/23 01:14:05;;;;;;;0.00;0.00;;;;;;;16.18;76.89;100821.91;5036887;28;20036;-76
2023/08/23 01:16:33;;;;;;;0.00;0.00;;;;;;;16.12;77.26;100812.03;5028878;28;20029;-80
2023/08/23 01:19:02;;;;;;;0.00;0.00;;;;;;;16.00;77.02;100805.00;5038626;28;20654;-79
2023/08/23 01:21:37;;;;;;;0.00;0.00;;;;;;;16.00;77.33;100826.22;5045492;28;20021;-77
2023/08/23 01:24:08;;;;;;;0.00;0.00;;;;;;;15.93;77.34;100815.56;5034829;28;20037;-78
2023/08/23 01:26:39;;;;;;;0.00;0.00;;;;;;;15.78;77.67;100811.00;5033748;28;20022;-77
2023/08/23 01:29:07;;;;;;;0.00;0.00;;;;;;;15.67;77.68;100801.19;5017650;28;20380;-76
2023/08/23 01:31:42;;;;;;;0.00;0.00;;;;;;;15.74;77.43;100811.84;5017591;28;20078;-77
2023/08/23 01:34:22;;;;;;;0.00;0.00;;;;;;;15.75;77.87;100814.31;5029288;28;20021;-76
2023/08/23 01:37:07;;;;;;;0.00;0.00;;;;;;;15.86;77.64;100815.09;5030388;28;20017;-77
2023/08/23 01:39:33;;;;;;;0.00;0.00;;;;;;;16.01;77.59;100816.84;5007709;28;20032;-77
2023/08/23 01:42:00;;;;;;;0.00;0.00;;;;;;;15.99;77.31;100791.47;5029742;28;20032;-76
2023/08/23 01:44:28;;;;;;;0.00;0.00;;;;;;;16.07;76.52;100796.34;5021573;28;20476;-77
2023/08/23 01:46:53;;;;;;;0.00;0.00;;;;;;;16.28;76.94;100815.41;5012677;28;20025;-76
2023/08/23 01:49:19;;;;;;;0.00;0.00;;;;;;;16.27;76.83;100813.78;4989931;28;20502;-75
2023/08/23 01:51:45;;;;;;;0.00;0.00;;;;;;;16.40;76.56;100832.41;5027764;28;20028;-77
2023/08/23 01:54:10;;;;;;;0.00;0.00;;;;;;;16.42;76.22;100827.38;5014857;28;20036;-75
2023/08/23 01:56:38;;;;;;;0.00;0.00;;;;;;;16.42;76.62;100816.34;5012010;28;20032;-76
2023/08/23 01:59:10;;;;;;;0.00;0.00;;;;;;;16.39;76.74;100803.94;5013383;28;20029;-76
2023/08/23 02:01:36;;;;;;;0.00;0.00;;;;;;;16.50;76.65;100812.94;5018297;28;20027;-76
2023/08/23 02:04:01;;;;;;;0.00;0.00;;;;;;;16.63;76.77;100824.34;4986899;28;20025;-76
2023/08/23 02:06:36;;;;;;;0.00;0.00;;;;;;;16.63;76.63;100827.13;5022482;28;20028;-76
2023/08/23 02:09:04;;;;;;;0.00;0.00;;;;;;;16.55;76.17;100810.09;5001685;28;20108;-76
2023/08/23 02:11:32;;;;;;;0.00;0.00;;;;;;;16.54;76.25;100802.94;5026890;28;20033;-76
2023/08/23 02:13:58;;;;;;;0.00;0.00;;;;;;;16.69;76.43;100832.28;5011401;28;20048;-76
2023/08/23 02:16:24;;;;;;;0.00;0.00;;;;;;;16.65;76.32;100819.38;5010542;28;20107;-74
2023/08/23 02:18:49;;;;;;;0.00;0.00;;;;;;;16.63;76.26;100829.88;5008635;28;20028;-75
2023/08/23 02:21:15;;;;;;;0.00;0.00;;;;;;;16.61;76.42;100832.13;4996819;28;20436;-76
2023/08/23 02:23:41;;;;;;;0.00;0.00;;;;;;;16.60;76.52;100839.56;5002737;28;20052;-76
2023/08/23 02:26:06;;;;;;;0.00;0.00;;;;;;;16.56;76.91;100844.88;5015510;28;20030;-78
2023/08/23 02:28:31;;;;;;;0.00;0.00;;;;;;;16.53;77.29;100842.72;5010552;28;20083;-74
2023/08/23 02:31:04;;;;;;;0.00;0.00;;;;;;;16.44;77.40;100841.72;5024685;28;20029;-75
2023/08/23 02:33:29;;;;;;;0.00;0.00;;;;;;;16.37;78.00;100831.03;5020815;28;20484;-75
2023/08/23 02:35:55;;;;;;;0.00;0.00;;;;;;;16.30;78.19;100824.25;5011950;28;20085;-75
2023/08/23 02:38:20;;;;;;;0.00;0.00;;;;;;;16.36;78.20;100836.84;5016666;28;20079;-76
2023/08/23 02:40:46;;;;;;;0.00;0.00;;;;;;;16.30;78.43;100819.53;5040047;28;20739;-77
2023/08/23 02:43:12;;;;;;;0.00;0.00;;;;;;;16.37;78.11;100825.53;4999794;28;20052;-77
2023/08/23 02:45:39;;;;;;;0.00;0.00;;;;;;;16.32;78.40;100819.25;5012658;28;20044;-76
2023/08/23 02:48:05;;;;;;;0.00;0.00;;;;;;;16.30;78.92;100818.72;5010711;28;20373;-78
2023/08/23 02:50:30;;;;;;;0.00;0.00;;;;;;;16.31;78.59;100817.59;4992628;28;20042;-78
2023/08/23 02:52:56;;;;;;;0.00;0.00;;;;;;;16.20;78.94;100809.44;5039176;28;20062;-78
2023/08/23 02:55:21;;;;;;;0.00;0.00;;;;;;;16.18;79.00;100811.69;5034691;28;20029;-77
2023/08/23 02:57:47;;;;;;;0.00;0.00;;;;;;;16.10;78.76;100811.50;5028324;28;20041;-78
2023/08/23 03:00:13;;;;;;;0.00;0.00;;;;;;;16.09;79.27;100824.50;5007737;28;20484;-78
2023/08/23 03:02:38;;;;;;;0.00;0.00;;;;;;;15.99;79.79;100816.31;5022685;28;20160;-77
2023/08/23 03:05:04;;;;;;;0.00;0.00;;;;;;;15.95;79.80;100823.53;5001163;28;20041;-79
2023/08/23 03:07:43;;;;;;;0.00;0.00;;;;;;;15.98;79.81;100828.47;4999825;28;20578;-76
2023/08/23 03:10:08;;;;;;;0.00;0.00;;;;;;;15.95;79.56;100821.59;5023147;28;20029;-77
2023/08/23 03:12:34;;;;;;;0.00;0.00;;;;;;;15.94;80.15;100822.69;5036352;28;20036;-78
2023/08/23 03:15:00;;;;;;;0.00;0.00;;;;;;;15.91;80.12;100822.47;5012399;28;20534;-77
2023/08/23 03:17:25;;;;;;;0.00;0.00;;;;;;;15.87;80.65;100817.56;5025922;28;20037;-77
2023/08/23 03:19:50;;;;;;;0.00;0.00;;;;;;;15.93;80.60;100836.78;4989927;28;20035;-77
2023/08/23 03:22:16;;;;;;;0.00;0.00;;;;;;;15.93;80.40;100831.25;5025443;28;20071;-78
2023/08/23 03:24:49;;;;;;;0.00;0.00;;;;;;;15.96;80.61;100816.88;5022569;28;20947;-77
2023/08/23 03:27:15;;;;;;;0.00;0.00;;;;;;;15.93;80.80;100823.00;5021216;28;20045;-77
2023/08/23 03:29:45;;;;;;;0.00;0.00;;;;;;;15.91;80.39;100828.00;5022085;28;20043;-77
2023/08/23 03:32:11;;;;;;;0.00;0.00;;;;;;;15.83;80.36;100821.19;5029278;28;20032;-78
2023/08/23 03:34:36;;;;;;;0.00;0.00;;;;;;;15.75;80.67;100825.34;5012756;28;20033;-77
2023/08/23 03:37:02;;;;;;;0.00;0.00;;;;;;;15.62;80.97;100817.75;5012756;28;20100;-77
2023/08/23 03:39:27;;;;;;;0.00;0.00;;;;;;;15.57;81.42;100818.63;5028100;28;20028;-77
2023/08/23 03:41:53;;;;;;;0.00;0.00;;;;;;;15.40;82.20;100819.06;5015448;28;20033;-78
2023/08/23 03:44:18;;;;;;;0.00;0.00;;;;;;;15.31;82.69;100812.53;5034141;28;20087;-77
2023/08/23 03:46:43;;;;;;;0.00;0.00;;;;;;;15.19;82.91;100805.47;5016497;28;20056;-77
2023/08/23 03:49:09;;;;;;;0.00;0.00;;;;;;;15.14;83.17;100808.25;5002018;28;20022;-76
2023/08/23 03:51:34;;;;;;;0.00;0.00;;;;;;;15.11;83.32;100806.09;5008292;28;20032;-75
2023/08/23 03:54:00;;;;;;;0.00;0.00;;;;;;;14.99;83.29;100802.84;5003685;28;20472;-77
2023/08/23 03:56:25;;;;;;;0.00;0.00;;;;;;;14.93;83.87;100798.50;5001575;28;20129;-78
2023/08/23 03:58:53;;;;;;;0.00;0.00;;;;;;;14.92;83.84;100786.69;5011412;28;20037;-78
2023/08/23 04:01:22;;;;;;;0.00;0.00;;;;;;;14.86;84.24;100776.78;5030927;28;20048;-77
2023/08/23 04:03:48;;;;;;;0.00;0.00;;;;;;;14.87;83.96;100788.66;5021033;28;20033;-76
2023/08/23 04:06:13;;;;;;;0.00;0.00;;;;;;;14.85;84.06;100794.44;4993235;28;20035;-75
2023/08/23 04:08:38;;;;;;;0.00;0.00;;;;;;;14.81;83.91;100791.41;5000812;28;20119;-77
2023/08/23 04:11:04;;;;;;;0.00;0.00;;;;;;;14.78;84.61;100789.25;5022770;28;20116;-77
2023/08/23 04:13:29;;;;;;;0.00;0.00;;;;;;;14.73;84.43;100788.44;5039307;28;20120;-75
2023/08/23 04:15:55;;;;;;;0.00;0.00;;;;;;;14.74;84.54;100790.91;5010695;28;20100;-76
2023/08/23 04:18:20;;;;;;;0.00;0.00;;;;;;;14.69;84.49;100779.94;5005508;28;20086;-76
2023/08/23 04:20:46;;;;;;;0.00;0.00;;;;;;;14.47;84.35;100759.13;4988279;28;20068;-77
2023/08/23 04:23:11;;;;;;;0.00;0.00;;;;;;;14.65;84.96;100787.13;4999092;28;20058;-75
2023/08/23 04:25:36;;;;;;;0.00;0.00;;;;;;;14.62;84.81;100788.50;5021212;28;20392;-76
2023/08/23 04:28:02;;;;;;;0.00;0.00;;;;;;;14.56;85.04;100786.03;5013482;28;20017;-75
2023/08/23 04:30:27;;;;;;;0.00;0.00;;;;;;;14.60;85.45;100796.22;5029642;28;20033;-78
2023/08/23 04:32:53;;;;;;;0.00;0.00;;;;;;;14.58;84.77;100798.41;5029060;28;20542;-77
2023/08/23 04:35:18;;;;;;;0.00;0.00;;;;;;;14.46;85.03;100795.19;5030589;28;20017;-77
2023/08/23 04:37:46;;;;;;;0.00;0.00;;;;;;;14.43;85.16;100796.56;5005032;28;20049;-78
2023/08/23 04:40:11;;;;;;;0.00;0.00;;;;;;;14.29;85.50;100781.78;5028230;28;20045;-79
2023/08/23 04:42:38;;;;;;;0.00;0.00;;;;;;;14.36;85.46;100796.03;5037694;28;20040;-78
2023/08/23 04:45:06;;;;;;;0.00;0.00;;;;;;;14.31;85.67;100798.84;5007853;28;20030;-78
2023/08/23 04:47:34;;;;;;;0.00;0.00;;;;;;;14.36;85.77;100811.75;5039503;28;20428;-77
2023/08/23 04:50:00;;;;;;;0.00;0.00;;;;;;;14.40;85.78;100805.38;5022283;28;20028;-77
2023/08/23 04:52:27;;;;;;;0.00;0.00;;;;;;;14.51;85.72;100802.59;5012227;28;20033;-76
2023/08/23 04:54:53;;;;;;;0.00;0.00;;;;;;;14.66;85.67;100808.03;5023487;28;20022;-76
2023/08/23 04:57:18;;;;;;;0.00;0.00;;;;;;;14.75;85.32;100809.09;5030058;28;20051;-78
2023/08/23 04:59:44;;;;;;;0.00;0.00;;;;;;;14.88;84.99;100812.28;5027581;28;20055;-77
2023/08/23 05:02:09;;;;;;;0.00;0.00;;;;;;;14.84;84.29;100785.34;5005324;28;20022;-77
2023/08/23 05:04:39;;;;;;;0.00;0.00;;;;;;;14.96;84.67;100808.94;5016731;28;20041;-79
2023/08/23 05:07:05;;;;;;;0.00;0.00;;;;;;;15.00;84.43;100812.78;5031021;28;20017;-77
2023/08/23 05:09:30;;;;;;;0.00;0.00;;;;;;;15.00;83.99;100810.84;5026056;28;20029;-80
2023/08/23 05:11:56;;;;;;;0.00;0.00;;;;;;;14.99;84.25;100802.84;5015414;28;20519;-79
2023/08/23 05:14:21;;;;;;;0.00;0.00;;;;;;;15.11;84.28;100822.63;5022845;28;20030;-78
2023/08/23 05:16:47;;;;;;;0.00;0.00;;;;;;;15.21;84.21;100831.91;4995786;28;20029;-77
2023/08/23 05:19:12;;;;;;;0.00;0.00;;;;;;;15.27;84.39;100842.56;4982419;28;20034;-77
2023/08/23 05:21:40;;;;;;;0.00;0.00;;;;;;;15.30;84.09;100841.19;5030567;28;20065;-78
2023/08/23 05:24:05;;;;;;;0.00;0.00;;;;;;;15.38;83.71;100843.34;4993066;28;20053;-76
2023/08/23 05:26:31;;;;;;;0.00;0.00;;;;;;;15.48;83.83;100832.22;4999542;28;20033;-76
2023/08/23 05:28:56;;;;;;;0.00;0.00;;;;;;;15.51;83.80;100830.84;4996565;28;20078;-76
2023/08/23 05:31:22;;;;;;;0.00;0.00;;;;;;;15.56;83.72;100850.06;5004773;28;20048;-77
2023/08/23 05:33:50;;;;;;;0.00;0.00;;;;;;;15.57;83.64;100839.88;5007227;28;20392;-78
2023/08/23 05:36:15;;;;;;;0.00;0.00;;;;;;;15.63;83.68;100839.53;4991834;28;20421;-76
2023/08/23 05:38:41;;;;;;;0.00;0.00;;;;;;;15.70;83.76;100834.50;5015958;28;20033;-76
2023/08/23 05:41:06;;;;;;;0.00;0.00;;;;;;;15.79;83.59;100837.47;4994154;28;20045;-76
2023/08/23 05:43:34;;;;;;;0.00;0.00;;;;;;;15.84;83.42;100836.59;5019915;28;20025;-75
2023/08/23 05:45:59;;;;;;;0.00;0.00;;;;;;;15.90;83.21;100834.63;5011950;28;20152;-75
2023/08/23 05:48:34;;;;;;;0.00;0.00;;;;;;;15.98;83.20;100836.75;5016240;28;20022;-75
2023/08/23 05:51:03;;;;;;;0.00;0.00;;;;;;;16.04;82.76;100849.34;5000812;28;20025;-74
2023/08/23 05:53:28;;;;;;;0.00;0.00;;;;;;;16.08;82.87;100839.38;5024763;28;20029;-75
2023/08/23 05:55:57;;;;;;;0.00;0.00;;;;;;;16.13;82.75;100846.78;5011427;28;20117;-75
2023/08/23 05:58:25;;;;;;;0.00;0.00;;;;;;;16.12;82.94;100840.44;5030466;28;20025;-76
2023/08/23 06:00:55;;;;;;;0.00;0.00;;;;;;;16.05;82.77;100828.94;5021034;28;20127;-78
2023/08/23 06:03:20;;;;;;;0.00;0.00;;;;;;;16.20;82.96;100842.53;5019588;28;20030;-76
2023/08/23 06:05:46;;;;;;;0.00;0.00;;;;;;;16.14;83.00;100854.75;5037792;28;20056;-75
2023/08/23 06:08:12;;;;;;;0.00;0.00;;;;;;;16.07;82.88;100848.78;5020206;28;20100;-75
2023/08/23 06:10:37;;;;;;;0.00;0.00;;;;;;;16.07;83.19;100854.28;5017572;28;20045;-75
2023/08/23 06:13:08;;;;;;;0.00;0.00;;;;;;;16.02;83.10;100846.91;5017665;28;20029;-76
2023/08/23 06:15:34;;;;;;;0.00;0.00;;;;;;;16.02;83.26;100852.41;4994726;28;20064;-75
2023/08/23 06:17:59;;;;;;;0.00;0.00;;;;;;;15.94;83.77;100841.19;5025400;28;20057;-76
2023/08/23 06:20:28;;;;;;;0.00;0.00;;;;;;;15.91;84.02;100836.25;5033509;28;20029;-76
2023/08/23 06:22:56;;;;;;;0.00;0.00;;;;;;;15.83;84.21;100830.28;4988638;28;20348;-77
2023/08/23 06:25:22;;;;;;;0.00;0.00;;;;;;;15.73;84.15;100822.06;5020803;28;20095;-75
2023/08/23 06:27:47;;;;;;;0.00;0.00;;;;;;;15.73;84.35;100830.34;5037223;28;20037;-77
2023/08/23 06:30:15;;;;;;;0.00;0.00;;;;;;;15.65;84.75;100814.41;5003726;28;20110;-77
2023/08/23 06:32:46;;;;;;;0.00;0.00;;;;;;;15.61;84.57;100807.84;4996055;28;20473;-73
2023/08/23 06:35:13;;;;;;;0.00;0.00;;;;;;;15.79;84.81;100831.97;5041629;28;20021;-73
2023/08/23 06:51:12;;;;;;;0.00;0.00;;;;;;;16.27;84.16;100842.19;5160530;23;20068;-80
2023/08/23 06:54:08;;;;;;;0.00;0.00;;;;;;;16.18;83.85;100810.88;5043787;28;20557;-80
2023/08/23 06:56:38;;;;;;;0.00;0.00;;;;;;;16.10;83.94;100797.72;5009146;28;20040;-82
2023/08/23 06:59:08;;;;;;;0.00;0.00;;;;;;;16.04;84.62;100795.00;5013976;28;20208;-78
2023/08/23 07:04:30;;;;;;;;;;;;;;;;;;;;;
2023/08/23 07:07:27;;;;;;;0.00;0.00;;;;;;;16.30;84.90;100814.00;5061662;28;20059;-83
2023/08/23 07:11:17;;;;;;;0.00;0.00;;;;;;;16.40;84.86;100807.56;5019674;28;20041;-82
2023/08/23 07:13:17;;;;;;;0.00;0.00;;;;;;;16.63;84.74;100816.06;4983352;28;20138;-81
2023/08/23 07:19:29;;;;;;;0.00;0.00;;;;;;;17.32;83.67;100833.03;4980258;28;20043;-84
2023/08/23 07:25:31;;;;;;;0.00;0.00;;;;;;;17.60;82.10;100792.44;4913626;29;20486;-83
2023/08/23 07:29:21;;;;;;;;;;;;;;;;;;;;;
2023/08/23 07:43:09;;;;;;;;;;;;;;;;;;;;;
2023/08/23 07:46:28;;;;;;;;;;;;;;;;;;;;;
2023/08/23 07:56:31;;;;;;;0.00;0.00;;;;;;;23.49;64.41;100886.88;4711765;30;20394;-83
2023/08/23 08:02:41;;;;;;;0.00;0.00;;;;;;;23.33;63.87;100839.28;4698649;30;20114;-84
2023/08/23 08:08:49;;;;;;;;;;;;;;;;;;;;;
2023/08/23 08:14:15;;;;;;;0.00;0.00;;;;;;;24.79;59.08;100863.31;4733599;30;20051;-81
2023/08/23 08:16:40;;;;;;;0.00;0.00;;;;;;;25.11;58.08;100880.25;4779464;29;20059;-82
2023/08/23 08:19:08;;;;;;;0.00;0.00;;;;;;;25.36;57.20;100869.00;4958361;28;20041;-81
2023/08/23 08:21:44;;;;;;;;;;;;;;;;;;;;;
2023/08/23 08:24:12;;;;;;;0.00;0.00;;;;;;;25.54;56.16;100864.72;4995745;28;20462;-83
2023/08/23 08:26:38;;;;;;;0.00;0.00;;;;;;;25.27;54.74;100872.72;5015393;28;20052;-83
2023/08/23 08:29:08;;;;;;;0.00;0.00;;;;;;;25.06;54.88;100872.13;5015025;28;20090;-82
2023/08/23 08:31:36;;;;;;;0.00;0.00;;;;;;;24.87;54.63;100861.56;5020543;28;20135;-80
2023/08/23 08:34:02;;;;;;;0.00;0.00;;;;;;;24.69;53.85;100852.63;5017733;28;20066;-81
2023/08/23 08:36:30;;;;;;;0.00;0.00;;;;;;;24.84;54.92;100865.88;5028380;28;20100;-84
2023/08/23 08:38:58;;;;;;;0.00;0.00;;;;;;;24.65;54.36;100880.47;4999727;28;20067;-80
2023/08/23 08:41:24;;;;;;;0.00;0.00;;;;;;;24.79;54.33;100885.69;5011222;28;20135;-81
2023/08/23 08:43:52;;;;;;;0.00;0.00;;;;;;;24.85;53.60;100869.47;5020618;28;20025;-79
2023/08/23 08:46:20;;;;;;;0.00;0.00;;;;;;;24.90;53.21;100856.06;5031343;28;20053;-79
2023/08/23 08:48:56;;;;;;;0.00;0.00;;;;;;;25.41;52.28;100877.97;4991633;28;20045;-77
2023/08/23 08:51:22;;;;;;;0.00;0.00;;;;;;;25.82;51.86;100880.69;5030361;28;20079;-79
2023/08/23 08:53:51;;;;;;;0.00;0.00;;;;;;;26.08;50.98;100876.56;5032778;28;20037;-80
2023/08/23 08:56:19;;;;;;;0.00;0.00;;;;;;;26.20;50.56;100884.91;5047265;28;20047;-80
2023/08/23 08:58:48;;;;;;;0.00;0.00;;;;;;;26.51;49.78;100899.25;5010888;28;20072;-80
2023/08/23 09:01:14;;;;;;;0.00;0.00;;;;;;;26.71;48.80;100880.50;5043102;28;20032;-79
2023/08/23 09:03:49;;;;;;;0.00;0.00;;;;;;;27.20;48.13;100868.75;5047411;28;20033;-79
2023/08/23 09:06:15;;;;;;;0.00;0.00;;;;;;;27.97;45.23;100877.47;5024600;28;20048;-79
2023/08/23 09:08:40;;;;;;;0.00;0.00;;;;;;;28.48;44.59;100842.59;5040470;28;20077;-80
2023/08/23 09:11:08;;;;;;;0.00;0.00;;;;;;;30.59;41.37;100863.06;5037776;28;20060;-80
2023/08/23 09:13:36;;;;;;;0.00;0.00;;;;;;;32.29;37.75;100857.97;5049408;28;20029;-79
2023/08/23 09:16:03;;;;;;;0.00;0.00;;;;;;;33.58;35.71;100879.44;5053405;28;20026;-79
2023/08/23 09:18:31;;;;;;;0.00;0.00;;;;;;;33.58;34.53;100851.88;5057466;28;20020;-79
2023/08/23 09:21:00;;;;;;;0.00;0.00;;;;;;;33.72;35.28;100870.03;5034359;28;20033;-79
2023/08/23 09:23:33;;;;;;;0.00;0.00;;;;;;;33.52;34.99;100876.22;5050741;28;20052;-80
2023/08/23 09:26:01;;;;;;;0.00;0.00;;;;;;;33.53;34.50;100877.03;5036835;28;20374;-81
2023/08/23 09:28:32;;;;;;;0.00;0.00;;;;;;;34.17;33.94;100858.78;5036366;28;20041;-80
2023/08/23 09:30:58;;;;;;;0.00;0.00;;;;;;;37.37;30.25;100852.38;5042812;28;20029;-80
2023/08/23 09:33:25;;;;;;;0.00;0.00;;;;;;;40.17;27.60;100865.00;5032953;28;20021;-80
2023/08/23 09:35:51;;;;;;;0.00;0.00;;;;;;;42.44;25.07;100850.44;5017242;28;20018;-80
2023/08/23 09:38:31;;;;;;;;;;;;;;;;;;;;;
2023/08/23 09:40:57;;;;;;;0.00;0.00;;;;;;;45.75;21.43;100862.41;5041338;28;20112;-81
2023/08/23 09:43:24;;;;;;;0.00;0.00;;;;;;;45.76;21.36;100829.34;5017367;28;20041;-80
2023/08/23 09:45:52;;;;;;;0.00;0.00;;;;;;;45.77;21.32;100830.16;5052166;28;20435;-80
2023/08/23 09:48:27;;;;;;;0.00;0.00;;;;;;;46.69;16.47;100872.06;5040732;28;20026;-80
2023/08/23 09:50:57;;;;;;;0.00;0.00;;;;;;;45.05;18.35;100840.03;5056998;28;20109;-80
2023/08/23 09:53:30;;;;;;;0.00;0.00;;;;;;;45.53;17.80;100827.44;5053457;28;20434;-80
2023/08/23 09:56:05;;;;;;;0.00;0.00;;;;;;;46.18;16.19;100842.50;5055845;28;20021;-80
2023/08/23 09:58:36;;;;;;;0.00;0.00;;;;;;;46.79;15.88;100831.38;5035552;28;20434;-80
2023/08/23 10:01:24;;;;;;;0.00;0.00;;;;;;;46.34;15.62;100834.59;5053873;28;20027;-80
2023/08/23 10:03:50;;;;;;;0.00;0.00;;;;;;;47.80;15.73;100848.78;5039807;28;20123;-80
2023/08/23 10:06:18;;;;;;;0.00;0.00;;;;;;;49.10;15.47;100834.66;5052938;28;20048;-80
2023/08/23 10:08:57;;;;;;;0.00;0.00;;;;;;;50.35;14.98;100834.34;5043499;28;20387;-79
2023/08/23 10:11:25;;;;;;;0.00;0.00;;;;;;;49.13;13.35;100849.41;5031439;28;20024;-76
2023/08/23 10:13:51;;;;;;;0.00;0.00;;;;;;;44.34;16.19;100837.63;5034921;28;20391;-75
2023/08/23 10:16:18;;;;;;;0.00;0.00;;;;;;;39.93;19.72;100822.41;5037471;28;20037;-76
2023/08/23 10:18:44;;;;;;;0.00;0.00;;;;;;;36.21;23.24;100813.91;5027176;28;20079;-76
2023/08/23 10:21:09;;;;;;;0.00;0.00;;;;;;;33.36;26.06;100814.38;5024633;28;20022;-75
2023/08/23 10:23:36;;;;;;;0.00;0.00;;;;;;;31.05;29.10;100805.25;5034586;28;20064;-74
2023/08/23 10:26:02;;;;;;;0.00;0.00;;;;;;;29.60;31.70;100802.63;5037488;28;20044;-76
2023/08/23 10:28:28;;;;;;;0.00;0.00;;;;;;;28.51;33.68;100806.06;5034531;28;20061;-76
2023/08/23 10:30:57;;;;;;;0.00;0.00;;;;;;;28.35;34.93;100809.06;5042380;28;20051;-77
2023/08/23 10:33:23;;;;;;;0.00;0.00;;;;;;;33.04;29.99;100784.16;5045139;28;20029;-78
2023/08/23 10:35:49;;;;;;;0.00;0.00;;;;;;;37.94;25.24;100793.13;5053985;28;20036;-78
2023/08/23 10:38:15;;;;;;;0.00;0.00;;;;;;;41.10;22.09;100792.81;5039622;28;20044;-78
2023/08/23 10:40:44;;;;;;;0.00;0.00;;;;;;;44.10;19.49;100797.28;5053792;28;20033;-76
2023/08/23 10:43:12;;;;;;;0.00;0.00;;;;;;;47.17;17.43;100797.53;5049919;28;20025;-78
2023/08/23 10:46:02;;;;;;;0.00;0.00;;;;;;;49.40;15.73;100787.63;5042143;28;20514;-79
2023/08/23 10:48:31;;;;;;;0.00;0.00;;;;;;;50.24;13.24;100771.22;5047332;28;20033;-79
2023/08/23 10:50:57;;;;;;;0.00;0.00;;;;;;;52.00;12.58;100778.28;5042863;28;20087;-78
2023/08/23 10:53:26;;;;;;;0.00;0.00;;;;;;;53.21;12.14;100759.88;5050537;28;20029;-78
2023/08/23 10:55:56;;;;;;;0.00;0.00;;;;;;;54.28;12.19;100746.47;5045131;28;20074;-78
2023/08/23 10:58:38;;;;;;;0.00;0.00;;;;;;;55.17;11.56;100759.38;5051776;28;20044;-77
2023/08/23 11:01:12;;;;;;;0.00;0.00;;;;;;;54.41;10.81;100732.56;5044900;28;20036;-79
2023/08/23 11:03:45;;;;;;;0.00;0.00;;;;;;;54.41;11.33;100752.28;5043315;28;20775;-79
2023/08/23 11:06:13;;;;;;;0.00;0.00;;;;;;;56.09;10.91;100753.19;5016047;28;20103;-78
2023/08/23 11:08:42;;;;;;;0.00;0.00;;;;;;;57.76;10.02;100743.28;5012364;28;20029;-77
2023/08/23 11:11:08;;;;;;;0.00;0.00;;;;;;;58.48;9.35;100740.13;5047236;28;20025;-77
2023/08/23 11:13:36;;;;;;;0.00;0.00;;;;;;;58.66;8.87;100726.97;5032756;28;20125;-78
2023/08/23 11:16:02;;;;;;;0.00;0.00;;;;;;;58.32;8.83;100740.22;5027711;28;20079;-79
2023/08/23 11:18:27;;;;;;;0.00;0.00;;;;;;;58.41;8.41;100729.94;5028915;28;20058;-78
2023/08/23 11:20:57;;;;;;;0.00;0.00;;;;;;;58.82;8.56;100715.09;5013927;28;20040;-77
2023/08/23 11:23:22;;;;;;;0.00;0.00;;;;;;;59.30;7.76;100697.06;5045816;28;20460;-77
2023/08/23 11:25:48;;;;;;;0.00;0.00;;;;;;;59.74;7.98;100708.09;5016811;28;20029;-78
2023/08/23 11:28:15;;;;;;;0.00;0.00;;;;;;;59.25;8.00;100709.91;5028819;28;20726;-78
2023/08/23 11:30:42;;;;;;;0.00;0.00;;;;;;;58.35;7.40;100714.69;5028006;28;20032;-78
2023/08/23 11:33:39;;;;;;;0.00;0.00;;;;;;;57.07;7.77;100679.63;5048941;28;20028;-81
2023/08/23 11:37:18;;;;;;;0.00;0.00;;;;;;;56.61;7.31;100671.69;5042861;28;20065;-80
2023/08/23 11:40:14;;;;;;;0.00;0.00;;;;;;;54.93;8.41;100683.03;5030941;28;21665;-79
2023/08/23 11:42:39;;;;;;;0.00;0.00;;;;;;;56.28;8.54;100677.34;5045088;28;20054;-77
2023/08/23 11:45:06;;;;;;;0.00;0.00;;;;;;;58.22;7.83;100676.75;5027433;28;20025;-79
2023/08/23 11:47:34;;;;;;;0.00;0.00;;;;;;;57.89;7.64;100709.13;5013315;28;20373;-78
2023/08/23 11:50:00;;;;;;;0.00;0.00;;;;;;;57.48;7.73;100682.63;5024190;28;20053;-77
2023/08/23 11:52:32;;;;;;;0.00;0.00;;;;;;;57.95;7.82;100689.06;5030525;28;20025;-77
2023/08/23 11:54:58;;;;;;;0.00;0.00;;;;;;;57.27;6.68;100698.41;5042353;28;20037;-78
2023/08/23 11:57:24;;;;;;;0.00;0.00;;;;;;;55.86;7.69;100671.81;5003503;28;20033;-76
2023/08/23 11:59:49;;;;;;;0.00;0.00;;;;;;;56.34;8.07;100691.06;5042833;28;20490;-77
2023/08/23 12:02:15;;;;;;;0.00;0.00;;;;;;;56.92;7.81;100671.66;5022196;28;20076;-77
2023/08/23 12:04:42;;;;;;;0.00;0.00;;;;;;;57.16;7.58;100675.28;5046311;28;20055;-78
2023/08/23 12:07:12;;;;;;;0.00;0.00;;;;;;;57.18;7.44;100678.44;5013646;28;20025;-78
2023/08/23 12:09:39;;;;;;;0.00;0.00;;;;;;;58.36;7.66;100678.78;5031510;28;20444;-76
2023/08/23 12:12:05;;;;;;;0.00;0.00;;;;;;;58.72;7.38;100688.44;5024938;28;20033;-75
2023/08/23 12:14:31;;;;;;;0.00;0.00;;;;;;;58.20;7.54;100680.28;5032821;28;20028;-78
2023/08/23 12:16:56;;;;;;;0.00;0.00;;;;;;;59.04;7.22;100684.59;5018516;28;20464;-76
2023/08/23 12:19:22;;;;;;;0.00;0.00;;;;;;;58.55;6.90;100680.41;5042097;28;20025;-76
2023/08/23 12:58:34;;;;;;;0.00;0.00;;;;;;;59.41;6.92;100606.56;5557610;23;20051;-78
2023/08/23 13:01:05;;;;;;;0.00;0.00;;;;;;;61.23;6.20;100625.22;4929275;28;20036;-76
2023/08/23 13:03:30;;;;;;;0.00;0.00;;;;;;;61.51;6.09;100608.06;4941613;28;20061;-76
2023/08/23 13:05:55;;;;;;;0.00;0.00;;;;;;;61.15;5.74;100615.75;4954006;28;20037;-77
2023/08/23 13:08:21;;;;;;;0.00;0.00;;;;;;;59.63;6.44;100602.50;4930196;28;20035;-76
2023/08/23 13:10:46;;;;;;;0.00;0.00;;;;;;;59.77;6.52;100599.19;4956630;28;20033;-78